createdAt,value
2019-05-18T00:01:18.489Z,82.18
2019-05-18T00:03:47.136Z,81.88
2019-05-18T00:06:15.767Z,81.65
2019-05-18T00:08:44.423Z,80.29
2019-05-18T00:11:13.062Z,80.06
2019-05-18T00:13:41.706Z,79.16
2019-05-18T00:16:10.643Z,78.30
2019-05-18T00:18:39.283Z,78.61
2019-05-18T00:21:08.026Z,79.04
2019-05-18T00:23:36.723Z,78.53
2019-05-18T00:26:05.366Z,79.04
2019-05-18T00:28:34.017Z,79.32
2019-05-18T00:31:02.644Z,78.71
2019-05-18T00:33:31.315Z,77.59
2019-05-18T00:35:59.925Z,77.19
2019-05-18T00:38:28.574Z,76.76
2019-05-18T00:40:57.223Z,77.10
2019-05-18T00:43:25.998Z,77.23
2019-05-18T00:45:54.642Z,76.92
2019-05-18T00:48:23.287Z,77.12
2019-05-18T00:50:51.947Z,77.09
2019-05-18T00:53:20.575Z,77.30
2019-05-18T00:55:49.169Z,77.57
2019-05-18T00:58:17.792Z,78.05
2019-05-18T01:00:46.432Z,78.77
2019-05-18T01:03:15.076Z,78.34
2019-05-18T01:05:43.671Z,78.67
2019-05-18T01:08:12.311Z,79.20
2019-05-18T01:10:40.947Z,78.63
2019-05-18T01:13:09.591Z,78.44
2019-05-18T01:15:38.236Z,78.83
2019-05-18T01:18:06.868Z,79.50
2019-05-18T01:20:35.519Z,79.93
2019-05-18T01:23:04.270Z,80.23
2019-05-18T01:25:32.948Z,80.85
2019-05-18T01:28:01.601Z,81.29
2019-05-18T01:30:30.232Z,81.48
2019-05-18T01:32:58.809Z,82.05
2019-05-18T01:35:27.459Z,82.17
2019-05-18T01:37:56.197Z,81.95
2019-05-18T01:40:24.857Z,81.98
2019-05-18T01:42:53.488Z,82.28
2019-05-18T01:45:22.120Z,82.71
2019-05-18T01:47:50.787Z,82.77
2019-05-18T01:50:19.701Z,82.81
2019-05-18T01:52:48.344Z,83.18
2019-05-18T01:55:16.982Z,83.00
2019-05-18T01:57:45.642Z,82.97
2019-05-18T02:00:15.082Z,83.04
2019-05-18T02:02:43.724Z,83.11
2019-05-18T02:05:12.657Z,82.89
2019-05-18T02:07:41.341Z,82.82
2019-05-18T02:10:10.418Z,82.51
2019-05-18T02:12:39.047Z,82.37
2019-05-18T02:15:08.591Z,82.27
2019-05-18T02:17:37.240Z,81.99
2019-05-18T02:20:05.995Z,81.98
2019-05-18T02:22:34.633Z,81.92
2019-05-18T02:25:05.193Z,81.87
2019-05-18T02:27:33.821Z,81.60
2019-05-18T02:30:02.501Z,81.63
2019-05-18T02:32:31.062Z,81.88
2019-05-18T02:35:00.053Z,81.92
2019-05-18T02:37:28.708Z,82.19
2019-05-18T02:39:57.341Z,82.07
2019-05-18T02:42:30.302Z,82.33
2019-05-18T02:44:56.343Z,82.83
2019-05-18T02:47:24.901Z,83.06
2019-05-18T02:49:53.547Z,83.59
2019-05-18T02:52:22.171Z,83.46
2019-05-18T02:54:50.826Z,82.74
2019-05-18T02:57:19.473Z,82.56
2019-05-18T02:59:48.107Z,82.79
2019-05-18T03:02:16.818Z,82.75
2019-05-18T03:04:45.468Z,82.99
2019-05-18T03:07:14.144Z,82.96
2019-05-18T03:09:42.887Z,82.32
2019-05-18T03:12:11.529Z,81.15
2019-05-18T03:14:40.181Z,81.43
2019-05-18T03:17:08.822Z,81.31
2019-05-18T03:19:37.460Z,79.94
2019-05-18T03:22:06.301Z,80.52
2019-05-18T03:24:34.879Z,81.65
2019-05-18T03:27:03.542Z,81.50
2019-05-18T03:29:32.252Z,81.61
2019-05-18T03:32:00.972Z,81.89
2019-05-18T03:34:29.535Z,82.08
2019-05-18T03:36:58.258Z,82.20
2019-05-18T03:39:26.898Z,81.13
2019-05-18T03:41:55.626Z,80.65
2019-05-18T03:44:24.261Z,80.68
2019-05-18T03:46:52.903Z,80.60
2019-05-18T03:49:27.031Z,80.54
2019-05-18T03:51:51.949Z,79.71
2019-05-18T03:54:20.588Z,79.68
2019-05-18T03:56:49.222Z,79.75
2019-05-18T03:59:17.843Z,79.60
2019-05-18T04:01:46.490Z,79.90
2019-05-18T04:04:18.417Z,79.12
2019-05-18T04:06:45.363Z,79.26
2019-05-18T04:09:13.945Z,79.32
2019-05-18T04:11:42.582Z,79.41
2019-05-18T04:14:11.232Z,78.52
2019-05-18T04:16:39.890Z,78.84
2019-05-18T04:19:08.536Z,78.38
2019-05-18T04:21:37.180Z,78.03
2019-05-18T04:24:05.817Z,77.84
2019-05-18T04:26:34.463Z,77.82
2019-05-18T04:29:03.128Z,76.50
2019-05-18T04:31:32.543Z,76.71
2019-05-18T04:34:01.468Z,76.46
2019-05-18T04:36:30.229Z,76.95
2019-05-18T04:38:58.879Z,76.51
2019-05-18T04:41:27.517Z,76.08
2019-05-18T04:43:56.156Z,75.71
2019-05-18T04:46:24.800Z,75.50
2019-05-18T04:48:53.432Z,75.65
2019-05-18T04:51:22.076Z,75.09
2019-05-18T04:53:50.814Z,74.72
2019-05-18T04:56:19.462Z,74.96
2019-05-18T04:58:48.110Z,74.48
2019-05-18T05:01:16.761Z,73.43
2019-05-18T05:03:45.329Z,73.78
2019-05-18T05:06:14.011Z,72.36
2019-05-18T05:08:42.666Z,71.61
2019-05-18T05:11:11.304Z,71.00
2019-05-18T05:13:39.908Z,69.40
2019-05-18T05:16:08.667Z,68.07
2019-05-18T05:18:37.443Z,65.95
2019-05-18T05:21:07.500Z,64.73
2019-05-18T05:23:36.222Z,63.78
2019-05-18T05:26:05.100Z,62.47
2019-05-18T05:28:33.653Z,62.13
2019-05-18T05:31:02.310Z,61.95
2019-05-18T05:33:30.961Z,61.63
2019-05-18T05:35:59.591Z,61.69
2019-05-18T05:38:28.163Z,62.48
2019-05-18T05:40:56.815Z,61.59
2019-05-18T05:43:25.387Z,62.07
2019-05-18T05:45:54.033Z,60.96
2019-05-18T05:48:22.835Z,60.98
2019-05-18T05:50:51.483Z,60.38
2019-05-18T05:53:20.200Z,59.31
2019-05-18T05:55:48.837Z,59.03
2019-05-18T05:58:17.502Z,58.24
2019-05-18T06:00:46.140Z,56.12
2019-05-18T06:03:14.776Z,57.01
2019-05-18T06:05:43.363Z,56.41
2019-05-18T06:08:11.985Z,55.48
2019-05-18T06:10:40.638Z,54.51
2019-05-18T06:13:09.329Z,55.33
2019-05-18T06:15:37.949Z,55.03
2019-05-18T06:18:06.593Z,54.44
2019-05-18T06:20:48.991Z,54.69
2019-05-18T06:23:05.677Z,54.19
2019-05-18T06:25:34.650Z,53.01
2019-05-18T06:28:03.367Z,51.69
2019-05-18T06:30:31.939Z,50.89
2019-05-18T06:33:00.508Z,51.37
2019-05-18T06:35:29.232Z,49.51
2019-05-18T06:37:57.943Z,49.57
2019-05-18T06:40:26.582Z,47.28
2019-05-18T06:42:55.151Z,47.98
2019-05-18T06:45:23.878Z,47.80
2019-05-18T06:47:52.537Z,49.30
2019-05-18T06:50:29.459Z,49.59
2019-05-18T06:52:58.181Z,49.67
2019-05-18T06:55:27.425Z,49.68
2019-05-18T06:57:58.156Z,48.56
2019-05-18T07:00:27.399Z,47.55
2019-05-18T07:02:56.115Z,47.20
2019-05-18T07:05:24.749Z,46.04
2019-05-18T07:07:53.327Z,46.34
2019-05-18T07:10:21.975Z,46.05
2019-05-18T07:12:50.626Z,45.40
2019-05-18T07:15:19.481Z,45.54
2019-05-18T07:17:48.125Z,44.85
2019-05-18T07:20:17.101Z,45.61
2019-05-18T07:22:45.742Z,44.94
2019-05-18T07:25:14.567Z,43.71
2019-05-18T07:27:43.145Z,41.01
2019-05-18T07:30:13.736Z,37.81
2019-05-18T07:32:42.367Z,34.27
2019-05-18T07:35:11.408Z,37.29
2019-05-18T07:37:40.068Z,34.61
2019-05-18T07:40:09.105Z,32.60
2019-05-18T07:42:37.696Z,32.64
2019-05-18T07:45:07.838Z,33.12
2019-05-18T07:47:36.476Z,30.09
2019-05-18T07:50:06.235Z,28.61
2019-05-18T07:52:34.866Z,26.46
2019-05-18T07:55:04.120Z,25.60
2019-05-18T07:57:32.762Z,22.64
2019-05-18T08:00:01.398Z,19.85
2019-05-18T08:02:30.037Z,19.35
2019-05-18T08:04:58.674Z,19.74
2019-05-18T08:07:27.404Z,18.68
2019-05-18T08:09:56.101Z,17.13
2019-05-18T08:12:24.613Z,14.72
2019-05-18T08:14:53.179Z,14.79
2019-05-18T08:17:21.829Z,13.71
2019-05-18T08:19:50.483Z,14.22
2019-05-18T08:22:19.146Z,13.49
2019-05-18T08:24:47.719Z,14.54
2019-05-18T08:27:16.437Z,14.43
2019-05-18T08:29:45.073Z,13.60
2019-05-18T08:32:13.721Z,13.93
2019-05-18T08:34:42.409Z,13.32
2019-05-18T08:37:11.066Z,13.65
2019-05-18T08:39:39.740Z,13.79
2019-05-18T08:42:08.399Z,12.55
2019-05-18T08:44:36.968Z,13.81
2019-05-18T08:47:05.622Z,12.51
2019-05-18T08:49:34.160Z,11.77
2019-05-18T08:52:08.502Z,11.47
2019-05-18T08:54:33.140Z,10.20
2019-05-18T08:57:01.736Z,11.40
2019-05-18T08:59:30.424Z,12.41
2019-05-18T09:01:59.238Z,10.32
2019-05-18T09:04:27.888Z,10.49
2019-05-18T09:06:56.560Z,10.67
2019-05-18T09:09:25.133Z,10.72
2019-05-18T09:11:53.767Z,9.76
2019-05-18T09:14:22.400Z,10.37
2019-05-18T09:16:50.967Z,10.46
2019-05-18T09:19:19.654Z,10.00
2019-05-18T09:21:48.458Z,10.50
2019-05-18T09:24:17.109Z,11.71
2019-05-18T09:26:45.767Z,11.79
2019-05-18T09:29:14.410Z,11.11
2019-05-18T09:31:43.057Z,8.72
2019-05-18T09:34:11.694Z,9.39
2019-05-18T09:36:40.444Z,9.14
2019-05-18T09:39:09.091Z,8.08
2019-05-18T09:41:37.730Z,7.71
2019-05-18T09:44:06.360Z,7.12
2019-05-18T09:46:34.999Z,7.77
2019-05-18T09:49:03.644Z,7.71
2019-05-18T09:51:32.294Z,7.12
2019-05-18T09:54:00.924Z,6.92
2019-05-18T09:56:29.580Z,8.37
2019-05-18T09:58:58.243Z,8.37
2019-05-18T10:01:26.891Z,8.82
2019-05-18T10:03:55.521Z,7.48
2019-05-18T10:06:24.169Z,7.56
2019-05-18T10:08:52.874Z,8.00
2019-05-18T10:11:21.497Z,8.78
2019-05-18T10:13:50.120Z,8.14
2019-05-18T10:16:18.756Z,6.99
2019-05-18T10:18:47.516Z,6.78
2019-05-18T10:21:16.154Z,5.72
2019-05-18T10:23:44.836Z,5.71
2019-05-18T10:26:13.468Z,5.96
2019-05-18T10:28:42.119Z,6.89
2019-05-18T10:31:10.775Z,6.58
2019-05-18T10:33:39.420Z,6.88
2019-05-18T10:36:08.196Z,6.84
2019-05-18T10:38:36.837Z,7.01
2019-05-18T10:41:05.587Z,7.09
2019-05-18T10:43:34.338Z,6.53
2019-05-18T10:46:02.961Z,6.47
2019-05-18T10:48:31.669Z,6.58
2019-05-18T10:51:00.376Z,7.36
2019-05-18T10:53:29.288Z,7.44
2019-05-18T10:55:57.999Z,9.07
2019-05-18T10:58:26.751Z,9.14
2019-05-18T11:00:55.404Z,10.45
2019-05-18T11:03:24.111Z,12.18
2019-05-18T11:05:52.763Z,15.39
2019-05-18T11:08:21.445Z,16.03
2019-05-18T11:10:50.073Z,18.37
2019-05-18T11:13:18.710Z,19.79
2019-05-18T11:15:47.363Z,21.43
2019-05-18T11:18:15.947Z,24.61
2019-05-18T11:20:44.624Z,25.19
2019-05-18T11:23:13.247Z,25.66
2019-05-18T11:25:42.192Z,27.08
2019-05-18T11:28:10.860Z,32.32
2019-05-18T11:30:39.555Z,30.62
2019-05-18T11:33:08.143Z,31.56
2019-05-18T11:38:02.046Z,33.36
2019-05-18T11:40:30.695Z,34.84
2019-05-18T11:42:59.420Z,36.73
2019-05-18T11:45:28.662Z,37.62
2019-05-18T11:47:57.304Z,36.62
2019-05-18T11:50:26.052Z,36.12
2019-05-18T11:52:54.701Z,35.12
2019-05-18T11:55:23.453Z,35.57
2019-05-18T11:57:52.304Z,35.53
2019-05-18T12:00:21.355Z,36.65
2019-05-18T12:02:50.004Z,36.64
2019-05-18T12:05:19.212Z,36.75
2019-05-18T12:07:47.846Z,37.01
2019-05-18T12:10:18.554Z,36.81
2019-05-18T12:12:47.451Z,37.27
2019-05-18T12:15:16.494Z,37.14
2019-05-18T12:17:45.169Z,36.96
2019-05-18T12:20:15.337Z,37.98
2019-05-18T12:22:44.005Z,36.27
2019-05-18T12:25:13.944Z,36.45
2019-05-18T12:27:42.616Z,36.58
2019-05-18T12:30:13.469Z,37.10
2019-05-18T12:32:42.119Z,36.72
2019-05-18T12:35:11.301Z,37.69
2019-05-18T12:37:39.957Z,33.35
2019-05-18T12:40:10.818Z,33.89
2019-05-18T12:42:39.450Z,33.70
2019-05-18T12:45:08.671Z,34.27
2019-05-18T12:47:37.320Z,35.05
2019-05-18T12:50:07.763Z,35.34
2019-05-18T12:52:36.602Z,33.49
2019-05-18T12:55:08.552Z,33.65
2019-05-18T12:57:37.391Z,33.30
2019-05-18T13:00:09.012Z,33.54
2019-05-18T13:02:37.659Z,33.07
2019-05-18T13:05:09.454Z,33.93
2019-05-18T13:07:38.129Z,34.82
2019-05-18T13:10:11.326Z,33.98
2019-05-18T13:12:39.966Z,34.73
2019-05-18T13:15:10.505Z,33.51
2019-05-18T13:17:39.250Z,34.27
2019-05-18T13:20:09.760Z,35.37
2019-05-18T13:22:38.435Z,34.65
2019-05-18T13:25:07.933Z,34.55
2019-05-18T13:27:39.197Z,34.78
2019-05-18T13:30:09.574Z,33.92
2019-05-18T13:32:38.202Z,34.86
2019-05-18T13:35:08.343Z,34.09
2019-05-18T13:37:36.974Z,34.30
2019-05-18T13:40:07.481Z,33.60
2019-05-18T13:42:36.139Z,34.17
2019-05-18T13:45:06.570Z,34.19
2019-05-18T13:47:35.142Z,34.50
2019-05-18T13:50:04.376Z,35.43
2019-05-18T13:52:33.017Z,36.40
2019-05-18T13:55:04.617Z,35.85
2019-05-18T13:57:32.003Z,35.46
2019-05-18T14:00:00.656Z,35.56
2019-05-18T14:02:29.376Z,35.68
2019-05-18T14:04:58.100Z,35.92
2019-05-18T14:07:26.777Z,36.21
2019-05-18T14:09:55.415Z,36.44
2019-05-18T14:12:24.146Z,35.96
2019-05-18T14:14:52.805Z,36.59
2019-05-18T14:17:21.456Z,36.08
2019-05-18T14:19:50.170Z,36.57
2019-05-18T14:22:18.738Z,36.74
2019-05-18T14:24:47.375Z,37.53
2019-05-18T14:27:15.952Z,37.38
2019-05-18T14:29:44.590Z,37.94
2019-05-18T14:32:13.176Z,37.35
2019-05-18T14:34:41.803Z,38.09
2019-05-18T14:37:10.473Z,37.40
2019-05-18T14:39:39.115Z,36.72
2019-05-18T14:42:07.747Z,36.16
2019-05-18T14:44:36.395Z,37.25
2019-05-18T14:47:05.055Z,36.92
2019-05-18T14:49:33.672Z,37.75
2019-05-18T14:52:02.415Z,36.96
2019-05-18T14:54:31.131Z,37.18
2019-05-18T14:56:59.686Z,36.84
2019-05-18T14:59:28.320Z,37.29
2019-05-18T15:01:56.969Z,38.02
2019-05-18T15:04:25.616Z,37.23
2019-05-18T15:06:54.713Z,37.07
2019-05-18T15:09:23.371Z,36.98
2019-05-18T15:11:51.957Z,36.03
2019-05-18T15:14:20.590Z,36.91
2019-05-18T15:16:49.352Z,36.06
2019-05-18T15:19:17.997Z,36.52
2019-05-18T15:21:46.663Z,36.86
2019-05-18T15:24:15.295Z,37.47
2019-05-18T15:26:43.954Z,36.94
2019-05-18T15:29:12.635Z,36.68
2019-05-18T15:31:41.279Z,36.10
2019-05-18T15:34:11.783Z,35.86
2019-05-18T15:36:41.676Z,35.67
2019-05-18T15:39:10.342Z,35.92
2019-05-18T15:41:38.989Z,36.29
2019-05-18T15:44:07.659Z,36.19
2019-05-18T15:46:36.292Z,36.00
2019-05-18T15:49:05.018Z,35.83
2019-05-18T15:51:33.815Z,35.51
2019-05-18T15:54:02.573Z,35.17
2019-05-18T15:56:31.237Z,35.17
2019-05-18T15:58:59.869Z,34.92
2019-05-18T16:01:28.502Z,34.69
2019-05-18T16:03:57.139Z,35.25
2019-05-18T16:06:25.787Z,35.80
2019-05-18T16:08:54.439Z,35.38
2019-05-18T16:11:23.157Z,35.29
2019-05-18T16:13:51.795Z,35.29
2019-05-18T16:16:20.431Z,35.60
2019-05-18T16:18:49.110Z,35.59
2019-05-18T16:21:17.735Z,35.65
2019-05-18T16:23:46.366Z,34.57
2019-05-18T16:26:21.579Z,34.97
2019-05-18T16:28:45.373Z,35.04
2019-05-18T16:31:14.032Z,35.05
2019-05-18T16:33:42.662Z,35.17
2019-05-18T16:36:11.304Z,35.64
2019-05-18T16:38:39.888Z,35.98
2019-05-18T16:41:08.586Z,36.85
2019-05-18T16:43:37.224Z,37.11
2019-05-18T16:46:05.876Z,36.96
2019-05-18T16:48:34.438Z,37.47
2019-05-18T16:51:03.175Z,37.76
2019-05-18T16:53:31.931Z,38.35
2019-05-18T16:56:00.582Z,38.81
2019-05-18T16:58:29.300Z,39.05
2019-05-18T17:00:57.938Z,39.39
2019-05-18T17:03:26.588Z,39.63
2019-05-18T17:05:55.214Z,39.95
2019-05-18T17:08:23.903Z,39.77
2019-05-18T17:10:52.549Z,40.52
2019-05-18T17:13:21.227Z,41.06
2019-05-18T17:15:49.882Z,41.62
2019-05-18T17:18:18.522Z,42.03
2019-05-18T17:20:47.255Z,42.19
2019-05-18T17:23:15.898Z,43.30
2019-05-18T17:25:44.577Z,41.84
2019-05-18T17:28:13.211Z,42.04
2019-05-18T17:30:42.808Z,42.88
2019-05-18T17:33:11.729Z,43.48
2019-05-18T17:35:40.386Z,44.40
2019-05-18T17:38:09.026Z,45.08
2019-05-18T17:40:37.658Z,46.02
2019-05-18T17:43:06.334Z,46.25
2019-05-18T17:45:34.985Z,46.17
2019-05-18T17:48:03.645Z,46.63
2019-05-18T17:50:32.279Z,46.35
2019-05-18T17:53:01.020Z,46.73
2019-05-18T17:55:29.760Z,44.29
2019-05-18T17:57:58.338Z,43.90
2019-05-18T18:00:27.033Z,43.58
2019-05-18T18:02:55.741Z,43.55
2019-05-18T18:05:24.333Z,44.23
2019-05-18T18:07:55.514Z,44.76
2019-05-18T18:10:23.269Z,44.65
2019-05-18T18:12:51.920Z,45.35
2019-05-18T18:15:20.774Z,45.87
2019-05-18T18:17:49.425Z,46.18
2019-05-18T18:20:18.267Z,45.96
2019-05-18T18:22:46.975Z,45.89
2019-05-18T18:25:15.781Z,46.46
2019-05-18T18:27:44.503Z,47.12
2019-05-18T18:30:14.462Z,47.99
2019-05-18T18:32:43.316Z,46.50
2019-05-18T18:35:11.977Z,46.23
2019-05-18T18:37:40.706Z,46.97
2019-05-18T18:40:10.020Z,46.88
2019-05-18T18:42:38.678Z,45.49
2019-05-18T18:45:08.688Z,45.65
2019-05-18T18:47:37.338Z,47.19
2019-05-18T18:50:07.576Z,47.29
2019-05-18T18:52:36.330Z,47.12
2019-05-18T18:55:06.894Z,47.38
2019-05-18T18:57:41.284Z,47.83
2019-05-18T19:00:07.271Z,48.41
2019-05-18T19:02:37.116Z,48.78
2019-05-18T19:05:07.552Z,48.64
2019-05-18T19:07:36.190Z,48.87
2019-05-18T19:10:06.738Z,49.06
2019-05-18T19:12:35.700Z,49.22
2019-05-18T19:15:07.106Z,48.69
2019-05-18T19:17:35.659Z,49.18
2019-05-18T19:20:07.565Z,49.24
2019-05-18T19:22:36.214Z,49.42
2019-05-18T19:25:05.857Z,50.04
2019-05-18T19:27:34.489Z,49.97
2019-05-18T19:30:03.939Z,50.94
2019-05-18T19:32:32.690Z,51.54
2019-05-18T19:35:01.264Z,52.90
2019-05-18T19:37:29.989Z,52.48
2019-05-18T19:39:58.622Z,51.85
2019-05-18T19:42:27.290Z,50.60
2019-05-18T19:44:55.847Z,52.71
2019-05-18T19:47:24.497Z,53.63
2019-05-18T19:49:53.137Z,52.29
2019-05-18T19:52:21.830Z,53.63
2019-05-18T19:54:50.355Z,54.38
2019-05-18T19:57:18.995Z,53.91
2019-05-18T19:59:47.656Z,54.22
2019-05-18T20:02:18.504Z,53.85
2019-05-18T20:05:05.761Z,53.92
2019-05-18T20:07:17.212Z,55.50
2019-05-18T20:09:45.970Z,56.11
2019-05-18T20:12:14.600Z,57.17
2019-05-18T20:14:43.260Z,57.67
2019-05-18T20:17:11.915Z,58.99
2019-05-18T20:19:40.556Z,60.33
2019-05-18T20:22:09.316Z,60.42
2019-05-18T20:24:37.924Z,62.36
2019-05-18T20:27:06.587Z,61.70
2019-05-18T20:29:35.278Z,61.96
2019-05-18T20:32:04.106Z,62.24
2019-05-18T20:34:32.894Z,62.42
2019-05-18T20:37:01.538Z,63.06
2019-05-18T20:39:30.181Z,63.18
2019-05-18T20:41:58.819Z,63.29
2019-05-18T20:44:27.469Z,63.80
2019-05-18T20:46:56.106Z,63.30
2019-05-18T20:49:24.973Z,62.76
2019-05-18T20:51:53.816Z,62.55
2019-05-18T20:54:22.632Z,62.66
2019-05-18T20:56:51.199Z,63.33
2019-05-18T20:59:20.012Z,62.86
2019-05-18T21:01:48.780Z,63.05
2019-05-18T21:04:17.403Z,63.10
2019-05-18T21:06:46.440Z,62.78
2019-05-18T21:09:16.289Z,63.64
2019-05-18T21:11:48.260Z,63.03
2019-05-18T21:14:20.837Z,62.03
2019-05-18T21:16:50.396Z,62.80
2019-05-18T21:19:22.048Z,62.96
2019-05-18T21:21:51.498Z,64.46
2019-05-18T21:24:22.148Z,63.04
2019-05-18T21:26:51.223Z,62.85
2019-05-18T21:29:20.791Z,63.39
2019-05-18T21:31:49.435Z,64.54
2019-05-18T21:34:19.163Z,63.64
2019-05-18T21:36:48.115Z,63.83
2019-05-18T21:39:17.051Z,63.79
2019-05-18T21:41:46.477Z,65.38
2019-05-18T21:44:15.145Z,64.87
2019-05-18T21:46:43.784Z,66.58
2019-05-18T21:49:12.469Z,65.19
2019-05-18T21:51:41.129Z,65.78
2019-05-18T21:54:09.768Z,65.23
2019-05-18T21:56:38.442Z,65.35
2019-05-18T21:59:11.836Z,64.50
2019-05-18T22:01:37.809Z,64.89
2019-05-18T22:04:06.386Z,64.23
2019-05-18T22:06:35.017Z,64.87
2019-05-18T22:09:05.732Z,65.46
2019-05-18T22:11:36.408Z,65.69
2019-05-18T22:14:05.916Z,67.02
2019-05-18T22:16:34.594Z,66.18
2019-05-18T22:19:03.315Z,65.43
2019-05-18T22:21:31.949Z,64.51
2019-05-18T22:24:02.345Z,65.19
2019-05-18T22:26:33.492Z,62.30
2019-05-18T22:29:02.224Z,62.87
2019-05-18T22:31:30.872Z,63.43
2019-05-18T22:34:00.465Z,63.98
2019-05-18T22:36:29.420Z,64.04
2019-05-18T22:38:58.062Z,65.16
2019-05-18T22:41:27.107Z,64.46
2019-05-18T22:43:55.799Z,64.45
2019-05-18T22:46:24.647Z,65.83
2019-05-18T22:48:53.651Z,64.97
2019-05-18T22:51:23.237Z,65.45
2019-05-18T22:53:53.783Z,66.19
2019-05-18T22:56:25.467Z,66.84
2019-05-18T22:58:56.187Z,66.49
2019-05-18T23:01:24.904Z,65.98
2019-05-18T23:03:53.895Z,63.09
2019-05-18T23:06:22.524Z,62.73
2019-05-18T23:08:53.254Z,60.51
2019-05-18T23:11:22.226Z,59.58
2019-05-18T23:13:51.804Z,59.39
2019-05-18T23:16:20.451Z,59.21
2019-05-18T23:18:57.013Z,60.37
2019-05-18T23:21:21.096Z,61.27
2019-05-18T23:23:50.066Z,60.71
2019-05-18T23:26:18.705Z,60.51
2019-05-18T23:28:48.084Z,59.58
2019-05-18T23:31:17.744Z,59.17
2019-05-18T23:33:47.370Z,59.69
2019-05-18T23:36:17.610Z,58.58
2019-05-18T23:38:47.677Z,58.42
2019-05-18T23:41:17.276Z,59.16
2019-05-18T23:43:46.305Z,58.56
2019-05-18T23:46:14.922Z,58.62
2019-05-18T23:48:43.482Z,58.60
2019-05-18T23:51:12.999Z,58.73
2019-05-18T23:53:41.646Z,58.92
2019-05-18T23:56:11.060Z,58.93
2019-05-18T23:58:39.734Z,60.14
